createdAt,value
2023-02-22T00:01:47.280Z,53.50
2023-02-22T00:04:15.874Z,53.60
2023-02-22T00:06:42.511Z,53.50
2023-02-22T00:09:10.188Z,53.50
2023-02-22T00:11:38.449Z,53.50
2023-02-22T00:14:05.395Z,53.00
2023-02-22T00:16:32.094Z,53.50
2023-02-22T00:18:58.817Z,53.50
2023-02-22T00:21:25.485Z,53.50
2023-02-22T00:23:54.497Z,53.50
2023-02-22T00:26:23.225Z,53.50
2023-02-22T00:28:52.484Z,53.50
2023-02-22T00:31:20.661Z,53.50
2023-02-22T00:33:47.591Z,53.50
2023-02-22T00:36:14.795Z,53.50
2023-02-22T00:38:42.185Z,53.40
2023-02-22T00:41:09.643Z,53.00
2023-02-22T00:43:36.342Z,53.50
2023-02-22T00:46:03.222Z,53.40
2023-02-22T00:48:29.902Z,53.50
2023-02-22T00:50:56.614Z,53.50
2023-02-22T00:53:25.253Z,53.00
2023-02-22T00:55:53.114Z,53.50
2023-02-22T00:58:20.647Z,53.40
2023-02-22T01:00:48.550Z,53.40
2023-02-22T01:03:18.729Z,52.90
2023-02-22T01:05:46.543Z,53.40
2023-02-22T01:08:15.444Z,53.40
2023-02-22T01:10:42.375Z,53.40
2023-02-22T01:13:11.902Z,53.40
2023-02-22T01:15:42.132Z,53.40
2023-02-22T01:18:09.227Z,53.40
2023-02-22T01:20:36.431Z,53.40
2023-02-22T01:23:06.440Z,53.50
2023-02-22T01:25:34.602Z,53.40
2023-02-22T01:28:02.513Z,53.40
2023-02-22T01:30:32.803Z,53.40
2023-02-22T01:33:01.014Z,53.40
2023-02-22T01:35:32.884Z,53.40
2023-02-22T01:37:59.904Z,53.40
2023-02-22T01:40:32.596Z,53.30
2023-02-22T01:43:04.531Z,52.90
2023-02-22T01:45:32.444Z,53.30
2023-02-22T01:48:08.578Z,53.30
2023-02-22T01:50:53.977Z,53.30
2023-02-22T01:53:25.047Z,53.30
2023-02-22T01:55:54.257Z,53.30
2023-02-22T01:58:23.078Z,53.40
2023-02-22T02:00:49.793Z,53.40
2023-02-22T02:03:28.294Z,52.90
2023-02-22T02:05:58.847Z,53.30
2023-02-22T02:08:37.143Z,53.30
2023-02-22T02:11:09.359Z,53.40
2023-02-22T02:13:36.912Z,53.30
2023-02-22T02:16:03.944Z,53.30
2023-02-22T02:18:32.498Z,53.40
2023-02-22T02:21:36.793Z,53.30
2023-02-22T02:24:39.769Z,53.30
2023-02-22T02:27:17.876Z,53.30
2023-02-22T02:30:03.330Z,53.30
2023-02-22T02:32:48.398Z,53.30
2023-02-22T02:35:29.296Z,53.30
2023-02-22T02:38:19.672Z,53.30
2023-02-22T02:41:10.711Z,53.30
2023-02-22T02:43:45.140Z,53.30
2023-02-22T02:46:14.739Z,53.30
2023-02-22T02:48:48.999Z,53.30
2023-02-22T02:51:17.359Z,53.30
2023-02-22T02:53:47.047Z,53.30
2023-02-22T02:56:13.715Z,53.30
2023-02-22T02:58:48.947Z,53.30
2023-02-22T03:01:38.525Z,53.30
2023-02-22T03:04:31.400Z,53.30
2023-02-22T03:06:57.967Z,53.30
2023-02-22T03:09:35.934Z,53.30
2023-02-22T03:12:13.365Z,53.30
2023-02-22T03:15:07.185Z,53.30
2023-02-22T03:17:55.374Z,53.30
2023-02-22T03:20:43.480Z,53.30
2023-02-22T03:23:24.701Z,53.30
2023-02-22T03:26:01.197Z,53.30
2023-02-22T03:28:29.830Z,53.30
2023-02-22T03:31:04.997Z,53.30
2023-02-22T03:33:36.183Z,52.80
2023-02-22T03:36:24.881Z,53.30
2023-02-22T03:38:55.488Z,53.30
2023-02-22T03:41:25.143Z,53.30
2023-02-22T03:44:02.992Z,53.30
2023-02-22T03:46:31.314Z,53.30
2023-02-22T03:49:16.666Z,53.30
2023-02-22T03:51:43.583Z,53.30
2023-02-22T03:54:16.163Z,53.30
2023-02-22T03:56:52.949Z,53.30
2023-02-22T03:59:25.179Z,53.30
2023-02-22T04:01:53.399Z,52.80
2023-02-22T04:04:21.234Z,53.30
2023-02-22T04:06:47.950Z,53.30
2023-02-22T04:09:15.105Z,53.30
2023-02-22T04:11:41.759Z,53.30
2023-02-22T04:14:08.493Z,53.30
2023-02-22T04:16:35.422Z,53.30
2023-02-22T04:19:02.172Z,53.30
2023-02-22T04:21:28.777Z,53.90
2023-02-22T04:23:55.461Z,53.30
2023-02-22T04:26:22.105Z,53.20
2023-02-22T04:28:48.693Z,53.30
2023-02-22T04:31:17.066Z,53.30
2023-02-22T04:33:44.434Z,53.30
2023-02-22T04:36:11.117Z,53.20
2023-02-22T04:38:37.718Z,53.30
2023-02-22T04:41:05.548Z,52.80
2023-02-22T04:43:32.144Z,53.30
2023-02-22T04:45:58.890Z,53.30
2023-02-22T04:48:25.555Z,53.20
2023-02-22T04:50:52.244Z,53.20
2023-02-22T04:53:18.876Z,53.20
2023-02-22T04:55:45.521Z,53.30
2023-02-22T04:58:12.195Z,53.30
2023-02-22T05:00:44.038Z,53.20
2023-02-22T05:03:10.711Z,52.80
2023-02-22T05:05:37.503Z,53.20
2023-02-22T05:08:04.265Z,53.90
2023-02-22T05:10:30.882Z,53.20
2023-02-22T05:12:57.561Z,52.70
2023-02-22T05:15:25.307Z,53.20
2023-02-22T05:17:52.789Z,53.20
2023-02-22T05:20:28.772Z,53.20
2023-02-22T05:22:56.854Z,52.70
2023-02-22T05:25:24.342Z,53.20
2023-02-22T05:27:56.242Z,53.20
2023-02-22T05:30:29.917Z,53.20
2023-02-22T05:32:56.619Z,53.20
2023-02-22T05:35:23.803Z,53.20
2023-02-22T05:37:50.839Z,53.10
2023-02-22T05:40:27.827Z,52.70
2023-02-22T05:42:56.603Z,53.20
2023-02-22T05:45:25.102Z,53.20
2023-02-22T05:47:52.395Z,53.20
2023-02-22T05:50:20.315Z,53.20
2023-02-22T05:52:50.562Z,53.10
2023-02-22T05:55:19.388Z,53.10
2023-02-22T05:57:46.480Z,53.20
2023-02-22T06:00:23.176Z,53.10
2023-02-22T06:03:02.042Z,52.70
2023-02-22T06:05:29.644Z,53.10
2023-02-22T06:07:57.637Z,53.10
2023-02-22T06:10:25.050Z,53.10
2023-02-22T06:12:52.066Z,53.10
2023-02-22T06:15:20.447Z,53.10
2023-02-22T06:17:47.773Z,53.10
2023-02-22T06:20:17.198Z,53.10
2023-02-22T06:22:45.488Z,53.10
2023-02-22T06:25:15.902Z,53.10
2023-02-22T06:27:42.608Z,53.10
2023-02-22T06:30:13.308Z,53.10
2023-02-22T06:32:40.106Z,53.10
2023-02-22T06:35:07.506Z,53.70
2023-02-22T06:37:34.163Z,53.10
2023-02-22T06:40:05.020Z,53.10
2023-02-22T06:42:32.404Z,53.10
2023-02-22T06:44:59.245Z,53.10
2023-02-22T06:47:25.952Z,53.10
2023-02-22T06:49:57.229Z,53.10
2023-02-22T06:52:24.342Z,53.10
2023-02-22T06:54:51.432Z,53.10
2023-02-22T06:57:18.504Z,53.10
2023-02-22T06:59:45.448Z,53.10
2023-02-22T07:02:12.599Z,52.60
2023-02-22T07:04:42.884Z,53.10
2023-02-22T07:07:10.295Z,53.10
2023-02-22T07:09:36.897Z,53.10
2023-02-22T07:12:04.295Z,53.10
2023-02-22T07:14:30.896Z,53.10
2023-02-22T07:16:57.481Z,53.10
2023-02-22T07:19:24.675Z,53.10
2023-02-22T07:21:55.202Z,53.10
2023-02-22T07:24:21.848Z,53.10
2023-02-22T07:26:48.490Z,53.10
2023-02-22T07:29:15.069Z,53.10
2023-02-22T07:31:41.686Z,53.10
2023-02-22T07:34:08.312Z,53.10
2023-02-22T07:36:34.975Z,53.10
2023-02-22T07:39:01.723Z,53.70
2023-02-22T07:41:28.394Z,53.10
2023-02-22T07:43:55.031Z,53.10
2023-02-22T07:46:21.715Z,53.00
2023-02-22T07:48:48.343Z,53.10
2023-02-22T07:51:17.147Z,53.10
2023-02-22T07:53:43.868Z,53.10
2023-02-22T07:56:10.506Z,53.10
2023-02-22T07:58:37.234Z,53.10
2023-02-22T08:01:04.082Z,53.00
2023-02-22T08:03:36.204Z,53.00
2023-02-22T08:06:04.285Z,53.10
2023-02-22T08:08:31.112Z,53.10
2023-02-22T08:10:58.158Z,53.00
2023-02-22T08:13:24.851Z,53.10
2023-02-22T08:15:53.664Z,53.00
2023-02-22T08:18:21.773Z,53.10
2023-02-22T08:20:49.790Z,53.10
2023-02-22T08:23:17.582Z,53.10
2023-02-22T08:25:44.454Z,53.10
2023-02-22T08:28:13.582Z,53.00
2023-02-22T08:30:42.684Z,53.00
2023-02-22T08:33:10.902Z,53.00
2023-02-22T08:35:37.579Z,53.00
2023-02-22T08:38:06.405Z,53.10
2023-02-22T08:40:36.168Z,53.00
2023-02-22T08:43:03.569Z,53.00
2023-02-22T08:45:30.464Z,53.00
2023-02-22T08:47:58.687Z,53.10
2023-02-22T08:50:30.987Z,53.10
2023-02-22T08:52:59.720Z,53.10
2023-02-22T08:55:30.397Z,53.10
2023-02-22T08:57:56.997Z,53.10
2023-02-22T09:00:25.181Z,53.10
2023-02-22T09:02:52.821Z,53.20
2023-02-22T09:05:19.648Z,53.10
2023-02-22T09:07:46.507Z,53.10
2023-02-22T09:10:23.613Z,53.20
2023-02-22T09:12:51.917Z,53.20
2023-02-22T09:15:19.265Z,53.20
2023-02-22T09:17:46.165Z,53.70
2023-02-22T09:20:13.814Z,53.20
2023-02-22T09:22:40.796Z,53.20
2023-02-22T09:25:16.318Z,53.70
2023-02-22T09:27:44.257Z,53.20
2023-02-22T09:30:37.604Z,53.10
2023-02-22T09:33:09.944Z,53.20
2023-02-22T09:35:46.106Z,53.20
2023-02-22T09:38:24.633Z,53.20
2023-02-22T09:40:57.203Z,53.30
2023-02-22T09:43:40.455Z,53.20
2023-02-22T09:46:29.436Z,53.20
2023-02-22T09:49:24.992Z,53.30
2023-02-22T09:52:11.756Z,52.70
2023-02-22T09:54:55.615Z,53.30
2023-02-22T09:57:35.142Z,53.30
2023-02-22T10:00:24.200Z,53.30
2023-02-22T10:03:03.807Z,52.80
2023-02-22T10:05:37.720Z,53.20
2023-02-22T10:08:10.074Z,53.30
2023-02-22T10:10:39.487Z,53.30
2023-02-22T10:13:14.459Z,53.30
2023-02-22T10:15:51.392Z,53.40
2023-02-22T10:18:23.753Z,53.30
2023-02-22T10:21:18.533Z,53.30
2023-02-22T10:24:12.373Z,53.30
2023-02-22T10:26:43.632Z,53.40
2023-02-22T10:29:25.299Z,53.30
2023-02-22T10:32:00.977Z,53.40
2023-02-22T10:34:33.212Z,53.40
2023-02-22T10:37:20.907Z,53.40
2023-02-22T10:39:49.731Z,53.40
2023-02-22T10:42:16.484Z,53.40
2023-02-22T10:44:43.096Z,53.40
2023-02-22T10:47:16.579Z,53.40
2023-02-22T10:49:49.287Z,53.40
2023-02-22T10:52:30.996Z,53.40
2023-02-22T10:55:14.121Z,53.40
2023-02-22T10:57:45.765Z,53.40
2023-02-22T11:00:26.094Z,53.40
2023-02-22T11:02:58.515Z,53.40
2023-02-22T11:05:36.745Z,53.40
2023-02-22T11:08:21.681Z,53.40
2023-02-22T11:10:54.319Z,53.50
2023-02-22T11:13:33.209Z,53.50
2023-02-22T11:16:03.129Z,53.50
2023-02-22T11:18:34.180Z,53.40
2023-02-22T11:21:04.772Z,53.50
2023-02-22T11:23:32.170Z,53.50
2023-02-22T11:26:24.847Z,53.50
2023-02-22T11:28:55.998Z,53.50
2023-02-22T11:31:27.114Z,53.50
2023-02-22T11:33:59.198Z,53.50
2023-02-22T11:36:40.408Z,53.50
2023-02-22T11:39:22.710Z,53.50
2023-02-22T11:41:49.920Z,53.00
2023-02-22T11:44:23.546Z,53.50
2023-02-22T11:46:51.611Z,53.50
2023-02-22T11:49:19.943Z,53.50
2023-02-22T11:52:07.798Z,53.50
2023-02-22T11:55:09.694Z,53.50
2023-02-22T11:57:46.637Z,53.60
2023-02-22T12:00:26.298Z,53.60
2023-02-22T12:03:20.697Z,53.10
2023-02-22T12:06:20.114Z,53.60
2023-02-22T12:09:05.487Z,53.60
2023-02-22T12:12:09.394Z,53.60
2023-02-22T12:14:55.294Z,53.60
2023-02-22T12:17:43.604Z,53.60
2023-02-22T12:20:25.361Z,53.60
2023-02-22T12:23:10.103Z,53.60
2023-02-22T12:25:41.444Z,53.60
2023-02-22T12:28:31.524Z,53.60
2023-02-22T12:31:11.377Z,53.60
2023-02-22T12:33:54.785Z,53.60
2023-02-22T12:36:27.640Z,53.60
2023-02-22T12:39:19.903Z,53.70
2023-02-22T12:41:50.290Z,53.60
2023-02-22T12:44:22.729Z,53.70
2023-02-22T12:46:53.253Z,53.70
2023-02-22T12:49:36.219Z,53.70
2023-02-22T12:52:33.356Z,53.70
2023-02-22T12:55:11.029Z,53.70
2023-02-22T12:58:00.730Z,53.90
2023-02-22T13:00:35.962Z,53.60
2023-02-22T13:03:18.315Z,53.70
2023-02-22T13:05:49.315Z,53.70
2023-02-22T13:08:54.797Z,53.70
2023-02-22T13:11:39.232Z,53.70
2023-02-22T13:14:49.978Z,53.70
2023-02-22T13:17:28.741Z,53.70
2023-02-22T13:20:02.455Z,53.70
2023-02-22T13:22:48.020Z,53.70
2023-02-22T13:25:17.443Z,53.70
2023-02-22T13:27:59.339Z,53.70
2023-02-22T13:30:45.903Z,53.70
2023-02-22T13:33:35.510Z,53.90
2023-02-22T13:36:15.813Z,53.80
2023-02-22T13:38:48.236Z,53.70
2023-02-22T13:41:32.723Z,53.80
2023-02-22T13:44:20.650Z,53.70
2023-02-22T13:46:59.906Z,53.70
2023-02-22T13:49:55.768Z,53.70
2023-02-22T13:52:26.267Z,53.70
2023-02-22T13:55:00.146Z,53.80
2023-02-22T13:57:48.616Z,53.80
2023-02-22T14:00:15.248Z,53.80
2023-02-22T14:03:02.816Z,53.80
2023-02-22T14:05:42.040Z,53.80
2023-02-22T14:08:17.369Z,53.80
2023-02-22T14:10:48.805Z,53.80
2023-02-22T14:13:18.281Z,53.80
2023-02-22T14:16:00.387Z,53.80
2023-02-22T14:18:35.982Z,53.80
2023-02-22T14:21:15.453Z,53.80
2023-02-22T14:23:50.626Z,53.80
2023-02-22T14:26:31.210Z,53.80
2023-02-22T14:29:09.536Z,53.80
2023-02-22T14:31:44.757Z,53.30
2023-02-22T14:34:36.432Z,53.80
2023-02-22T14:37:24.775Z,53.70
2023-02-22T14:40:15.491Z,53.80
2023-02-22T14:42:48.309Z,53.80
2023-02-22T14:45:22.859Z,53.80
2023-02-22T14:48:00.961Z,53.80
2023-02-22T14:50:45.238Z,53.80
2023-02-22T14:53:27.519Z,53.70
2023-02-22T14:56:02.797Z,53.70
2023-02-22T14:58:45.080Z,53.70
2023-02-22T15:01:44.305Z,53.70
2023-02-22T15:04:30.868Z,53.70
2023-02-22T15:06:59.821Z,53.70
2023-02-22T15:09:31.151Z,53.70
2023-02-22T15:12:04.814Z,53.20
2023-02-22T15:14:37.799Z,53.80
2023-02-22T15:17:10.218Z,53.70
2023-02-22T15:19:39.899Z,53.70
2023-02-22T15:22:14.911Z,53.70
2023-02-22T15:24:41.542Z,53.80
2023-02-22T15:27:17.525Z,53.80
2023-02-22T15:29:45.248Z,53.70
2023-02-22T15:32:31.582Z,53.70
2023-02-22T15:35:16.500Z,53.70
2023-02-22T15:37:45.106Z,53.70
2023-02-22T15:40:20.763Z,53.70
2023-02-22T15:42:52.921Z,53.70
2023-02-22T15:45:22.185Z,53.70
2023-02-22T15:47:49.693Z,53.70
2023-02-22T15:50:32.215Z,53.70
2023-02-22T15:53:06.617Z,53.20
2023-02-22T15:55:39.701Z,53.70
2023-02-22T15:58:16.862Z,53.70
2023-02-22T16:01:00.181Z,53.70
2023-02-22T16:03:28.414Z,53.70
2023-02-22T16:05:56.707Z,53.70
2023-02-22T16:08:54.063Z,53.70
2023-02-22T16:11:22.013Z,53.70
2023-02-22T16:13:54.059Z,53.70
2023-02-22T16:16:32.577Z,53.70
2023-02-22T16:19:26.045Z,53.70
2023-02-22T16:22:02.716Z,53.70
2023-02-22T16:24:31.177Z,53.60
2023-02-22T16:27:20.022Z,53.70
2023-02-22T16:30:25.304Z,53.60
2023-02-22T16:32:54.662Z,53.70
2023-02-22T16:35:21.485Z,53.60
2023-02-22T16:37:50.411Z,53.70
2023-02-22T16:40:27.051Z,53.70
2023-02-22T16:42:53.750Z,53.10
2023-02-22T16:45:22.110Z,53.70
2023-02-22T16:47:53.480Z,53.70
2023-02-22T16:50:21.929Z,53.60
2023-02-22T16:52:48.526Z,53.60
2023-02-22T16:55:17.731Z,53.60
2023-02-22T16:57:44.973Z,53.60
2023-02-22T17:00:15.906Z,53.60
2023-02-22T17:02:42.602Z,53.60
2023-02-22T17:05:13.959Z,53.60
2023-02-22T17:07:40.595Z,53.60
2023-02-22T17:10:08.250Z,53.60
2023-02-22T17:12:34.879Z,53.60
2023-02-22T17:15:03.380Z,53.60
2023-02-22T17:17:30.255Z,53.60
2023-02-22T17:19:57.178Z,53.60
2023-02-22T17:22:23.914Z,53.60
2023-02-22T17:24:50.603Z,53.60
2023-02-22T17:27:17.194Z,53.60
2023-02-22T17:29:45.051Z,53.60
2023-02-22T17:32:12.819Z,53.60
2023-02-22T17:34:40.573Z,53.70
2023-02-22T17:37:07.246Z,53.70
2023-02-22T17:39:33.859Z,53.70
2023-02-22T17:42:00.564Z,53.60
2023-02-22T17:44:27.196Z,53.70
2023-02-22T17:46:53.820Z,53.70
2023-02-22T17:49:20.437Z,53.70
2023-02-22T17:51:50.115Z,53.70
2023-02-22T17:54:17.549Z,53.70
2023-02-22T17:56:44.934Z,53.70
2023-02-22T17:59:11.642Z,53.70
2023-02-22T18:01:38.454Z,53.70
2023-02-22T18:04:05.393Z,53.70
2023-02-22T18:06:32.777Z,53.70
2023-02-22T18:09:00.476Z,53.70
2023-02-22T18:11:28.822Z,53.70
2023-02-22T18:13:57.388Z,53.70
2023-02-22T18:16:27.864Z,53.70
2023-02-22T18:18:56.021Z,53.70
2023-02-22T18:21:23.361Z,53.20
2023-02-22T18:23:49.994Z,53.20
2023-02-22T18:26:18.747Z,53.70
2023-02-22T18:28:45.593Z,53.70
2023-02-22T18:31:15.082Z,53.70
2023-02-22T18:33:46.917Z,53.70
2023-02-22T18:36:15.237Z,53.70
2023-02-22T18:38:44.611Z,53.80
2023-02-22T18:41:13.480Z,53.80
2023-02-22T18:43:40.970Z,53.80
2023-02-22T18:46:08.805Z,53.80
2023-02-22T18:48:36.422Z,53.80
2023-02-22T18:51:05.783Z,53.80
2023-02-22T18:53:32.817Z,53.80
2023-02-22T18:56:15.091Z,53.80
2023-02-22T18:58:45.249Z,53.90
2023-02-22T19:01:17.300Z,53.90
2023-02-22T19:03:46.941Z,53.80
2023-02-22T19:06:15.324Z,53.90
2023-02-22T19:08:43.464Z,52.90
2023-02-22T19:11:17.784Z,53.90
2023-02-22T19:13:49.097Z,53.90
2023-02-22T19:16:21.450Z,53.90
2023-02-22T19:18:49.894Z,53.90
2023-02-22T19:21:18.356Z,53.90
2023-02-22T19:23:45.828Z,53.90
2023-02-22T19:26:20.467Z,53.80
2023-02-22T19:28:48.133Z,53.90
2023-02-22T19:31:19.984Z,53.80
2023-02-22T19:33:51.060Z,53.80
2023-02-22T19:36:19.879Z,53.80
2023-02-22T19:38:46.669Z,53.80
2023-02-22T19:41:19.487Z,53.30
2023-02-22T19:43:51.547Z,53.80
2023-02-22T19:46:18.581Z,53.80
2023-02-22T19:48:45.678Z,53.80
2023-02-22T19:51:14.855Z,53.80
2023-02-22T19:53:42.779Z,53.80
2023-02-22T19:56:16.175Z,53.80
2023-02-22T19:58:44.985Z,53.80
2023-02-22T20:01:13.772Z,53.80
2023-02-22T20:03:42.049Z,53.80
2023-02-22T20:06:10.656Z,53.80
2023-02-22T20:08:41.797Z,53.80
2023-02-22T20:11:10.586Z,53.80
2023-02-22T20:13:41.212Z,53.80
2023-02-22T20:16:09.815Z,53.80
2023-02-22T20:18:36.712Z,53.70
2023-02-22T20:21:08.378Z,53.80
2023-02-22T20:23:35.103Z,53.80
2023-02-22T20:26:02.103Z,53.80
2023-02-22T20:28:29.745Z,53.80
2023-02-22T20:30:56.380Z,53.70
2023-02-22T20:33:23.271Z,53.20
2023-02-22T20:35:50.046Z,53.80
2023-02-22T20:38:19.142Z,53.80
2023-02-22T20:40:46.738Z,53.70
2023-02-22T20:43:13.372Z,53.70
2023-02-22T20:45:40.077Z,53.70
2023-02-22T20:48:06.856Z,53.80
2023-02-22T20:50:35.236Z,53.80
2023-02-22T20:53:01.848Z,53.80
2023-02-22T20:55:28.491Z,53.80
2023-02-22T20:57:55.069Z,53.80
2023-02-22T21:00:21.882Z,53.80
2023-02-22T21:02:48.561Z,53.80
2023-02-22T21:05:15.231Z,53.80
2023-02-22T21:07:41.856Z,53.80
2023-02-22T21:10:08.867Z,53.80
2023-02-22T21:12:35.495Z,53.90
2023-02-22T21:15:02.160Z,53.80
2023-02-22T21:17:29.272Z,53.80
2023-02-22T21:19:56.984Z,53.80
2023-02-22T21:22:25.153Z,53.80
2023-02-22T21:24:51.965Z,53.80
2023-02-22T21:27:18.992Z,53.80
2023-02-22T21:29:45.671Z,53.90
2023-02-22T21:32:13.659Z,53.90
2023-02-22T21:34:40.471Z,53.80
2023-02-22T21:37:08.203Z,53.80
2023-02-22T21:39:35.500Z,53.90
2023-02-22T21:42:02.398Z,53.90
2023-02-22T21:44:29.480Z,53.90
2023-02-22T21:46:56.271Z,53.90
2023-02-22T21:49:23.253Z,53.90
2023-02-22T21:51:51.526Z,53.80
2023-02-22T21:54:18.726Z,53.90
2023-02-22T21:56:45.888Z,53.90
2023-02-22T21:59:15.389Z,53.90
2023-02-22T22:01:55.287Z,53.90
2023-02-22T22:04:27.281Z,53.90
2023-02-22T22:06:56.570Z,53.90
2023-02-22T22:09:24.085Z,53.90
2023-02-22T22:12:01.172Z,53.80
2023-02-22T22:14:28.081Z,53.90
2023-02-22T22:17:00.038Z,53.90
2023-02-22T22:19:34.044Z,53.80
2023-02-22T22:22:01.356Z,53.30
2023-02-22T22:24:31.913Z,53.90
2023-02-22T22:27:03.439Z,53.80
2023-02-22T22:29:30.554Z,53.80
2023-02-22T22:31:57.303Z,53.80
2023-02-22T22:34:29.376Z,53.80
2023-02-22T22:36:59.950Z,53.80
2023-02-22T22:39:26.832Z,53.80
2023-02-22T22:41:53.537Z,53.30
2023-02-22T22:44:22.209Z,53.80
2023-02-22T22:46:53.270Z,53.80
2023-02-22T22:49:20.484Z,53.80
2023-02-22T22:51:47.425Z,53.80
2023-02-22T22:54:14.334Z,53.80
2023-02-22T22:56:41.226Z,53.80
2023-02-22T22:59:08.274Z,53.90
2023-02-22T23:01:44.163Z,53.30
2023-02-22T23:04:16.093Z,53.90
2023-02-22T23:06:45.433Z,53.90
2023-02-22T23:09:21.634Z,53.90
2023-02-22T23:11:50.664Z,53.90
2023-02-22T23:14:20.126Z,53.90
2023-02-22T23:16:51.463Z,53.90
2023-02-22T23:19:19.150Z,53.90
2023-02-22T23:21:48.059Z,53.90
2023-02-22T23:24:16.881Z,53.90
2023-02-22T23:26:48.513Z,53.90
2023-02-22T23:29:17.030Z,54.00
2023-02-22T23:31:43.708Z,53.90
2023-02-22T23:34:13.843Z,53.90
2023-02-22T23:36:46.902Z,53.90
2023-02-22T23:39:15.678Z,53.90
2023-02-22T23:41:42.631Z,53.40
2023-02-22T23:44:17.567Z,53.90
2023-02-22T23:46:47.861Z,53.90
2023-02-22T23:49:19.933Z,53.90
2023-02-22T23:51:47.598Z,53.90
2023-02-22T23:54:19.120Z,54.00
2023-02-22T23:57:02.161Z,53.90
2023-02-22T23:59:32.618Z,54.00
